Tropical Cyclones
[Index]
Main Index Home Page Stock Weather Photos Extreme Storms Discussion Storm News and Storm Chasing Reports Tropical Cyclones / Hurricanes / Typhoons Weather Data and Links Wild Fires / Bushfires Weather Observation Techniques Weather Picture Catalogue Tornado Pictures and Reports Stock Video Footage and DVDs for sale
Season 1989-1990 Tropical Cyclone SAM Track Map
Season 1989-1990 Summaries: [BoM-AU] [JTWC-AU] [JTWC-SIO] [JTWC-SPAC] [JTWC-SH]
<<- Previous TC | BoM 1989-1990 Season | Next TC ->>

click for intensity scale information  Lat/long Grid: Show Hide

 Date Labels: Show Hide

Bureau of Meteorology Tropical Cyclone Data

Name: SAM
Number: 723 / 198990_04

11 Jan 1990 18:00 UTC to 21 Jan 1990 06:00 UTC

    date/time    lat    long    hPa   cat  kts
1990-01-11 18   12.0   130.5   1003         27          
1990-01-12 00   12.6   129.5   1003         27          
1990-01-12 06   12.8   128.6   1003         27          
1990-01-12 12   13.0   127.7   1002         27          
1990-01-12 18   13.2   126.7   1001         29          
1990-01-13 00   13.3   125.6    999         33          
1990-01-13 06   13.4   124.6    997         35          
1990-01-13 12   13.4   123.5    995    1    39          
1990-01-13 18   13.5   122.6    993    1    41          
1990-01-14 00   13.8   121.8    986    1    52          
1990-01-14 06   14.0   121.0    982    2    58          
1990-01-14 12   14.2   119.9    978    2    64          
1990-01-14 18   14.5   118.8    972    2    70          
1990-01-15 00   14.8   117.5    972    2    70          
1990-01-15 06   15.0   116.3    972    2    70          
1990-01-15 12   15.4   115.1    976    2    66          
1990-01-15 18   15.8   114.1    976    2    66          
1990-01-16 00   16.1   113.1    976    2    66          
1990-01-16 06   16.3   112.0    976    2    66          
1990-01-16 12   16.7   110.9    976    2    66          
1990-01-16 18   17.3   109.9    974    2    68          
1990-01-17 00   18.0   109.0    974    2    68          
1990-01-17 06   18.6   108.3    972    2    70          
1990-01-17 12   19.2   107.6    970    3    74          
1990-01-17 18   19.6   107.0    968    3    76          
1990-01-18 00   20.1   106.5    966    3    78          
1990-01-18 06   20.9   106.0    966    3    78          
1990-01-18 12   21.7   105.7    966    3    78          
1990-01-18 18   22.5   105.3    970    3    74          
1990-01-19 00   23.0   105.1    975    2    66          
1990-01-19 06   23.6   105.0    980    2    60          
1990-01-19 12   24.5   105.0    985    2    54          
1990-01-19 18   25.4   105.0    990    1    47          
1990-01-20 00   26.0   105.1    994    1    41          
1990-01-20 06   26.4   105.4    997         35          
1990-01-20 12   26.9   106.2    999         33          
1990-01-20 18   27.1   107.0   1002         27          
1990-01-21 00   27.4   108.1   1002         27          
1990-01-21 06   27.7   109.0   1003         27          
Winds are 10-min average.

Tropical cyclone tracks developed by Michael Bath using data from the Bureau of Meteorology and Google Maps.


[Australian Severe Weather index] [Copyright Notice] [Email Contacts] [Search This Site] [Privacy Policy]
Document: tropical_cyclone_sam.htm Updated: 30 May 2013